createdAt,value
2023-05-16T00:01:06.442Z,22.43
2023-05-16T00:03:35.189Z,19.30
2023-05-16T00:06:06.658Z,20.63
2023-05-16T00:08:35.507Z,21.80
2023-05-16T00:11:04.255Z,22.00
2023-05-16T00:13:32.888Z,18.07
2023-05-16T00:16:02.816Z,18.27
2023-05-16T00:18:31.568Z,16.43
2023-05-16T00:21:00.532Z,16.43
2023-05-16T00:23:30.408Z,17.03
2023-05-16T00:25:59.201Z,16.17
2023-05-16T00:28:27.707Z,14.33
2023-05-16T00:31:00.693Z,11.90
2023-05-16T00:33:29.819Z,12.40
2023-05-16T00:35:58.194Z,11.77
2023-05-16T00:38:27.032Z,8.17
2023-05-16T00:40:57.479Z,10.20
2023-05-16T00:43:26.927Z,10.70
2023-05-16T00:45:55.640Z,13.23
2023-05-16T00:48:24.075Z,8.10
2023-05-16T00:50:53.389Z,10.13
2023-05-16T00:53:22.564Z,12.47
2023-05-16T00:55:51.128Z,9.10
2023-05-16T00:58:23.091Z,9.13
2023-05-16T01:00:51.893Z,10.00
2023-05-16T01:03:21.476Z,8.07
2023-05-16T01:05:51.193Z,8.10
2023-05-16T01:08:20.322Z,11.43
2023-05-16T01:10:56.050Z,12.37
2023-05-16T01:13:33.279Z,10.23
2023-05-16T01:16:10.239Z,11.27
2023-05-16T01:18:45.911Z,10.60
2023-05-16T01:21:21.733Z,9.10
2023-05-16T01:24:00.641Z,15.13
2023-05-16T01:26:31.314Z,10.53
2023-05-16T01:29:00.339Z,11.00
2023-05-16T01:31:29.696Z,19.27
2023-05-16T01:33:58.239Z,15.47
2023-05-16T01:36:37.096Z,11.47
2023-05-16T01:39:14.256Z,12.67
2023-05-16T01:41:53.694Z,17.47
2023-05-16T01:44:27.882Z,14.60
2023-05-16T01:46:59.475Z,14.77
2023-05-16T01:49:32.974Z,11.13
2023-05-16T01:52:06.520Z,15.30
2023-05-16T01:54:40.065Z,19.00
2023-05-16T01:57:12.083Z,20.77
2023-05-16T01:59:42.982Z,16.17
2023-05-16T02:02:12.704Z,15.93
2023-05-16T02:04:41.240Z,16.40
2023-05-16T02:07:10.307Z,17.20
2023-05-16T02:09:39.010Z,16.43
2023-05-16T02:12:08.322Z,20.50
2023-05-16T02:14:38.925Z,17.27
2023-05-16T02:17:08.171Z,16.07
2023-05-16T02:19:36.941Z,11.47
2023-05-16T02:22:05.946Z,20.33
2023-05-16T02:24:34.400Z,16.87
2023-05-16T02:27:03.202Z,18.23
2023-05-16T02:29:31.884Z,19.87
2023-05-16T02:32:02.470Z,19.30
2023-05-16T02:34:30.979Z,18.37
2023-05-16T02:36:59.566Z,16.17
2023-05-16T02:39:28.966Z,19.93
2023-05-16T02:41:57.423Z,16.00
2023-05-16T02:44:27.167Z,20.23
2023-05-16T02:46:56.042Z,21.73
2023-05-16T02:49:26.060Z,18.03
2023-05-16T02:51:54.668Z,20.77
2023-05-16T02:54:23.816Z,23.30
2023-05-16T02:56:52.367Z,22.27
2023-05-16T02:59:21.140Z,20.83
2023-05-16T03:01:49.833Z,22.23
2023-05-16T03:04:18.581Z,21.23
2023-05-16T03:06:51.510Z,28.33
2023-05-16T03:09:22.398Z,23.57
2023-05-16T03:11:52.142Z,20.47
2023-05-16T03:14:23.639Z,21.10
2023-05-16T03:16:52.554Z,18.07
2023-05-16T03:19:21.396Z,24.93
2023-05-16T03:21:51.395Z,20.70
2023-05-16T03:24:21.999Z,22.93
2023-05-16T03:26:50.749Z,23.23
2023-05-16T03:29:19.272Z,19.03
2023-05-16T03:31:47.784Z,21.80
2023-05-16T03:34:16.483Z,18.23
2023-05-16T03:36:45.764Z,23.67
2023-05-16T03:39:15.860Z,22.93
2023-05-16T03:41:44.883Z,23.83
2023-05-16T03:44:13.561Z,22.20
2023-05-16T03:46:42.360Z,26.13
2023-05-16T03:49:11.043Z,26.20
2023-05-16T03:51:41.748Z,24.03
2023-05-16T03:54:10.288Z,15.27
2023-05-16T03:56:44.403Z,24.17
2023-05-16T03:59:13.644Z,22.20
2023-05-16T04:01:42.442Z,20.47
2023-05-16T04:04:10.865Z,19.80
2023-05-16T04:06:39.614Z,17.70
2023-05-16T04:09:08.589Z,25.43
2023-05-16T04:11:41.717Z,15.73
2023-05-16T04:14:11.708Z,26.00
2023-05-16T04:16:40.530Z,20.50
2023-05-16T04:19:09.137Z,24.43
2023-05-16T04:21:38.025Z,19.50
2023-05-16T04:24:08.833Z,21.83
2023-05-16T04:26:39.622Z,20.57
2023-05-16T04:29:08.289Z,21.03
2023-05-16T04:31:38.384Z,26.57
2023-05-16T04:34:06.984Z,25.70
2023-05-16T04:36:35.927Z,17.93
2023-05-16T04:39:04.577Z,28.93
2023-05-16T04:41:34.014Z,27.50
2023-05-16T04:44:04.450Z,21.33
2023-05-16T04:46:33.338Z,23.93
2023-05-16T04:49:07.173Z,20.47
2023-05-16T04:51:37.780Z,27.13
2023-05-16T04:54:09.005Z,22.20
2023-05-16T04:56:37.521Z,23.77
2023-05-16T04:59:06.029Z,20.10
2023-05-16T05:01:34.823Z,18.83
2023-05-16T05:04:05.013Z,21.00
2023-05-16T05:06:33.511Z,17.10
2023-05-16T05:09:02.499Z,16.00
2023-05-16T05:11:30.905Z,13.83
2023-05-16T05:13:59.487Z,14.77
2023-05-16T05:16:28.094Z,10.50
2023-05-16T05:18:57.063Z,17.70
2023-05-16T05:21:31.294Z,12.87
2023-05-16T05:23:59.817Z,27.10
2023-05-16T05:26:29.134Z,8.17
2023-05-16T05:29:05.283Z,17.07
2023-05-16T05:31:36.255Z,12.03
2023-05-16T05:34:05.461Z,12.47
2023-05-16T05:36:37.922Z,16.13
2023-05-16T05:39:07.101Z,18.73
2023-05-16T05:41:35.991Z,15.93
2023-05-16T05:44:04.569Z,12.33
2023-05-16T05:46:34.407Z,13.23
2023-05-16T05:49:05.152Z,15.67
2023-05-16T05:51:35.158Z,13.70
2023-05-16T05:54:05.355Z,14.87
2023-05-16T05:56:34.589Z,13.97
2023-05-16T05:59:03.253Z,16.17
2023-05-16T06:01:34.619Z,11.63
2023-05-16T06:04:04.535Z,12.57
2023-05-16T06:06:34.888Z,9.07
2023-05-16T06:09:03.378Z,13.03
2023-05-16T06:11:33.346Z,15.93
2023-05-16T06:14:02.093Z,12.00
2023-05-16T06:16:30.627Z,14.53
2023-05-16T06:18:59.489Z,12.83
2023-05-16T06:21:28.219Z,13.83
2023-05-16T06:23:58.317Z,15.47
2023-05-16T06:26:28.137Z,12.73
2023-05-16T06:28:56.621Z,12.90
2023-05-16T06:31:28.144Z,12.17
2023-05-16T06:33:59.236Z,9.87
2023-05-16T06:36:29.285Z,15.57
2023-05-16T06:38:59.315Z,15.13
2023-05-16T06:41:27.888Z,13.00
2023-05-16T06:43:56.648Z,12.97
2023-05-16T06:46:28.763Z,13.63
2023-05-16T06:48:57.533Z,12.80
2023-05-16T06:51:28.624Z,10.83
2023-05-16T06:54:02.842Z,7.43
2023-05-16T06:56:34.940Z,12.43
2023-05-16T06:59:04.779Z,9.27
2023-05-16T07:01:34.731Z,9.53
2023-05-16T07:04:05.361Z,9.07
2023-05-16T07:06:35.113Z,8.57
2023-05-16T07:09:07.038Z,11.27
2023-05-16T07:11:35.736Z,9.03
2023-05-16T07:14:05.124Z,9.40
2023-05-16T07:16:35.436Z,7.77
2023-05-16T07:19:08.597Z,7.67
2023-05-16T07:21:37.209Z,4.20
2023-05-16T07:24:10.112Z,11.03
2023-05-16T07:26:38.577Z,6.10
2023-05-16T07:29:07.391Z,11.80
2023-05-16T07:31:36.586Z,7.87
2023-05-16T07:34:05.325Z,5.70
2023-05-16T07:36:34.218Z,12.00
2023-05-16T07:39:04.246Z,9.00
2023-05-16T07:41:36.629Z,7.97
2023-05-16T07:44:05.469Z,9.17
2023-05-16T07:46:34.962Z,6.47
2023-05-16T07:49:05.562Z,7.80
2023-05-16T07:51:34.531Z,5.07
2023-05-16T07:54:04.371Z,9.20
2023-05-16T07:56:34.922Z,7.50
2023-05-16T07:59:04.016Z,8.03
2023-05-16T08:01:36.382Z,7.53
2023-05-16T08:04:06.527Z,5.73
2023-05-16T08:06:38.032Z,6.73
2023-05-16T08:09:07.855Z,8.10
2023-05-16T08:11:40.203Z,9.80
2023-05-16T08:14:09.282Z,8.60
2023-05-16T08:16:39.502Z,10.43
2023-05-16T08:19:08.854Z,4.63
2023-05-16T08:21:38.100Z,4.50
2023-05-16T08:24:07.596Z,6.23
2023-05-16T08:26:38.948Z,5.83
2023-05-16T08:29:07.811Z,9.67
2023-05-16T08:31:37.142Z,6.37
2023-05-16T08:34:06.770Z,6.13
2023-05-16T08:36:44.278Z,4.10
2023-05-16T08:39:15.691Z,4.50
2023-05-16T08:41:46.815Z,5.20
2023-05-16T08:44:21.978Z,5.43
2023-05-16T08:46:54.174Z,5.20
2023-05-16T08:49:24.529Z,5.07
2023-05-16T08:51:58.997Z,4.43
2023-05-16T08:54:28.902Z,5.77
2023-05-16T08:57:00.038Z,5.00
2023-05-16T08:59:29.746Z,6.80
2023-05-16T09:01:59.953Z,5.27
2023-05-16T09:04:37.811Z,7.60
2023-05-16T09:07:10.965Z,4.57
2023-05-16T09:09:41.184Z,6.33
2023-05-16T09:12:15.629Z,5.90
2023-05-16T09:14:45.751Z,7.90
2023-05-16T09:17:20.485Z,8.57
2023-05-16T09:19:58.499Z,5.03
2023-05-16T09:22:28.780Z,4.20
2023-05-16T09:25:02.591Z,5.17
2023-05-16T09:27:35.733Z,6.50
2023-05-16T09:30:05.147Z,6.23
2023-05-16T09:32:34.584Z,4.17
2023-05-16T09:35:04.609Z,5.47
2023-05-16T09:37:33.682Z,4.60
2023-05-16T09:40:02.692Z,4.73
2023-05-16T09:42:54.997Z,4.60
2023-05-16T09:45:25.076Z,6.80
2023-05-16T09:47:55.033Z,10.20
2023-05-16T09:50:25.912Z,4.43
2023-05-16T09:52:55.390Z,3.07
2023-05-16T09:55:25.188Z,4.17
2023-05-16T09:58:10.326Z,6.20
2023-05-16T10:00:47.361Z,6.57
2023-05-16T10:03:17.872Z,4.03
2023-05-16T10:06:05.430Z,6.70
2023-05-16T10:08:40.489Z,5.90
2023-05-16T10:11:19.634Z,3.93
2023-05-16T10:13:53.680Z,3.97
2023-05-16T10:16:26.330Z,5.87
2023-05-16T10:18:59.441Z,5.67
2023-05-16T10:21:37.544Z,7.97
2023-05-16T10:24:12.972Z,5.07
2023-05-16T10:26:42.606Z,9.10
2023-05-16T10:29:14.520Z,5.77
2023-05-16T10:31:47.193Z,8.53
2023-05-16T10:34:19.428Z,4.30
2023-05-16T10:36:50.655Z,7.27
2023-05-16T10:39:32.074Z,6.00
2023-05-16T10:42:03.830Z,4.40
2023-05-16T10:44:36.752Z,9.33
2023-05-16T10:47:12.362Z,4.30
2023-05-16T10:49:51.336Z,4.80
2023-05-16T10:52:20.203Z,3.50
2023-05-16T10:55:01.203Z,3.60
2023-05-16T10:57:40.169Z,4.37
2023-05-16T11:00:24.778Z,2.27
2023-05-16T11:02:54.140Z,4.77
2023-05-16T11:05:26.717Z,3.43
2023-05-16T11:08:07.361Z,5.43
2023-05-16T11:10:38.189Z,4.07
2023-05-16T11:13:11.237Z,4.20
2023-05-16T11:15:51.475Z,4.23
2023-05-16T11:18:25.641Z,2.00
2023-05-16T11:21:00.346Z,5.13
2023-05-16T11:23:30.002Z,3.90
2023-05-16T11:26:07.395Z,6.47
2023-05-16T11:28:38.419Z,3.87
2023-05-16T11:31:20.425Z,3.40
2023-05-16T11:34:09.553Z,3.30
2023-05-16T11:36:50.152Z,2.33
2023-05-16T11:39:21.261Z,5.00
2023-05-16T11:41:54.217Z,4.20
2023-05-16T11:44:28.421Z,2.37
2023-05-16T11:47:08.324Z,2.57
2023-05-16T11:49:56.450Z,3.33
2023-05-16T11:52:38.541Z,4.37
2023-05-16T11:55:36.863Z,2.87
2023-05-16T11:58:13.799Z,3.97
2023-05-16T12:00:56.328Z,2.97
2023-05-16T12:03:34.156Z,3.87
2023-05-16T12:06:03.640Z,4.03
2023-05-16T12:08:32.990Z,3.87
2023-05-16T12:11:04.254Z,2.43
2023-05-16T12:13:34.694Z,4.53
2023-05-16T12:16:06.905Z,3.00
2023-05-16T12:18:41.914Z,7.67
2023-05-16T12:21:12.536Z,3.17
2023-05-16T12:23:48.546Z,4.17
2023-05-16T12:26:25.003Z,4.23
2023-05-16T12:28:58.448Z,3.40
2023-05-16T12:31:32.178Z,3.87
2023-05-16T12:34:07.147Z,2.53
2023-05-16T12:36:37.021Z,2.93
2023-05-16T12:39:09.897Z,6.77
2023-05-16T12:41:43.160Z,5.80
2023-05-16T12:44:17.719Z,3.03
2023-05-16T12:46:56.329Z,3.67
2023-05-16T12:49:26.951Z,3.30
2023-05-16T12:51:59.400Z,3.47
2023-05-16T12:54:32.703Z,1.53
2023-05-16T12:57:01.820Z,1.63
2023-05-16T12:59:33.348Z,3.37
2023-05-16T13:02:05.705Z,2.17
2023-05-16T13:04:38.586Z,9.10
2023-05-16T13:07:14.327Z,3.43
2023-05-16T13:09:45.551Z,5.60
2023-05-16T13:12:18.321Z,2.50
2023-05-16T13:14:48.895Z,4.37
2023-05-16T13:17:22.746Z,2.40
2023-05-16T13:19:53.958Z,4.60
2023-05-16T13:22:29.388Z,3.90
2023-05-16T13:24:59.484Z,2.37
2023-05-16T13:27:33.043Z,3.20
2023-05-16T13:30:19.127Z,5.73
2023-05-16T13:32:57.520Z,6.30
2023-05-16T13:35:31.280Z,2.77
2023-05-16T13:38:07.289Z,3.97
2023-05-16T13:40:51.845Z,4.63
2023-05-16T13:43:27.303Z,6.30
2023-05-16T13:45:56.894Z,4.97
2023-05-16T13:48:38.134Z,5.30
2023-05-16T13:54:05.189Z,5.10
2023-05-16T13:56:38.140Z,3.60
2023-05-16T13:59:44.729Z,3.67
2023-05-16T14:02:26.661Z,2.67
2023-05-16T14:04:58.484Z,5.57
2023-05-16T14:07:53.042Z,5.97
2023-05-16T14:10:25.066Z,6.17
2023-05-16T14:13:11.531Z,4.63
2023-05-16T14:15:57.899Z,4.73
2023-05-16T14:18:28.668Z,1.83
2023-05-16T14:21:03.792Z,5.43
2023-05-16T14:23:40.830Z,5.07
2023-05-16T14:26:26.042Z,3.97
2023-05-16T14:29:02.076Z,5.47
2023-05-16T14:31:34.443Z,4.17
2023-05-16T14:34:06.276Z,4.67
2023-05-16T14:36:36.642Z,3.03
2023-05-16T14:39:09.368Z,2.93
2023-05-16T14:41:41.769Z,4.17
2023-05-16T14:44:13.992Z,4.57
2023-05-16T14:46:45.322Z,3.60
2023-05-16T14:49:17.810Z,5.90
2023-05-16T14:51:49.665Z,6.17
2023-05-16T14:54:20.097Z,6.33
2023-05-16T14:56:51.180Z,8.70
2023-05-16T14:59:23.510Z,4.80
2023-05-16T15:01:54.461Z,6.47
2023-05-16T15:04:26.615Z,5.30
2023-05-16T15:06:56.683Z,4.90
2023-05-16T15:09:29.459Z,4.20
2023-05-16T15:12:08.899Z,6.60
2023-05-16T15:14:44.246Z,5.33
2023-05-16T15:17:14.264Z,4.67
2023-05-16T15:19:43.589Z,4.47
2023-05-16T15:22:12.183Z,2.40
2023-05-16T15:24:43.088Z,1.87
2023-05-16T15:27:13.963Z,3.07
2023-05-16T15:29:44.653Z,3.80
2023-05-16T15:32:14.684Z,4.87
2023-05-16T15:34:44.002Z,2.90
2023-05-16T15:37:17.865Z,3.67
2023-05-16T15:39:50.151Z,3.63
2023-05-16T15:42:23.265Z,2.87
2023-05-16T15:44:52.475Z,2.47
2023-05-16T15:47:22.220Z,3.47
2023-05-16T15:49:51.242Z,4.00
2023-05-16T15:52:22.822Z,3.23
2023-05-16T15:54:57.165Z,4.87
2023-05-16T15:57:31.210Z,2.53
2023-05-16T16:00:01.824Z,4.93
2023-05-16T16:02:31.747Z,3.70
2023-05-16T16:05:07.213Z,3.77
2023-05-16T16:07:42.545Z,5.03
2023-05-16T16:10:14.327Z,4.73
2023-05-16T16:12:44.697Z,4.97
2023-05-16T16:15:17.640Z,6.70
2023-05-16T16:17:52.323Z,3.60
2023-05-16T16:20:22.416Z,4.07
2023-05-16T16:22:55.490Z,3.20
2023-05-16T16:25:26.717Z,6.27
2023-05-16T16:27:58.485Z,5.33
2023-05-16T16:30:28.158Z,5.93
2023-05-16T16:33:02.266Z,7.83
2023-05-16T16:35:39.102Z,4.13
2023-05-16T16:38:18.779Z,4.20
2023-05-16T16:40:50.273Z,5.30
2023-05-16T16:43:33.461Z,5.33
2023-05-16T16:46:08.326Z,5.83
2023-05-16T16:48:57.201Z,4.60
2023-05-16T16:51:31.589Z,5.10
2023-05-16T16:54:05.947Z,4.93
2023-05-16T16:56:52.098Z,7.40
2023-05-16T16:59:32.273Z,5.30
2023-05-16T17:02:04.838Z,5.53
2023-05-16T17:04:42.117Z,5.40
2023-05-16T17:07:12.068Z,8.33
2023-05-16T17:09:43.432Z,6.47
2023-05-16T17:12:20.751Z,5.00
2023-05-16T17:14:57.655Z,5.47
2023-05-16T17:17:30.680Z,5.53
2023-05-16T17:20:06.344Z,4.53
2023-05-16T17:22:36.193Z,5.10
2023-05-16T17:25:12.554Z,4.80
2023-05-16T17:27:45.231Z,5.20
2023-05-16T17:30:24.871Z,4.40
2023-05-16T17:32:55.431Z,6.23
2023-05-16T17:35:32.792Z,5.07
2023-05-16T17:38:03.401Z,6.60
2023-05-16T17:40:35.312Z,6.10
2023-05-16T17:43:10.355Z,5.93
2023-05-16T17:46:07.613Z,5.37
2023-05-16T17:48:40.285Z,4.53
2023-05-16T17:51:16.665Z,5.77
2023-05-16T17:53:51.210Z,5.13
2023-05-16T17:56:21.658Z,9.40
2023-05-16T17:59:06.319Z,5.13
2023-05-16T18:01:37.759Z,4.80
2023-05-16T18:04:09.630Z,5.73
2023-05-16T18:06:50.082Z,3.53
2023-05-16T18:09:23.184Z,4.27
2023-05-16T18:11:59.796Z,5.07
2023-05-16T18:14:35.678Z,5.30
2023-05-16T18:17:07.200Z,5.57
2023-05-16T18:19:43.328Z,5.03
2023-05-16T18:22:17.367Z,6.23
2023-05-16T18:24:47.049Z,4.30
2023-05-16T18:27:18.093Z,5.67
2023-05-16T18:29:53.046Z,3.87
2023-05-16T18:32:32.681Z,4.37
2023-05-16T18:35:04.114Z,5.13
2023-05-16T18:37:42.120Z,5.63
2023-05-16T18:40:13.876Z,6.97
2023-05-16T18:42:46.801Z,4.00
2023-05-16T18:45:18.272Z,5.13
2023-05-16T18:47:54.221Z,5.63
2023-05-16T18:50:24.610Z,2.83
2023-05-16T18:52:57.932Z,4.87
2023-05-16T18:55:34.009Z,5.43
2023-05-16T18:58:09.516Z,5.50
2023-05-16T19:00:44.881Z,5.03
2023-05-16T19:03:16.250Z,3.20
2023-05-16T19:05:47.185Z,4.23
2023-05-16T19:08:18.421Z,3.43
2023-05-16T19:10:47.761Z,4.17
2023-05-16T19:13:21.110Z,5.03
2023-05-16T19:15:54.047Z,3.73
2023-05-16T19:18:25.092Z,6.40
2023-05-16T19:20:59.521Z,4.17
2023-05-16T19:23:33.345Z,4.80
2023-05-16T19:26:06.914Z,6.27
2023-05-16T19:28:43.395Z,4.60
2023-05-16T19:31:17.401Z,4.97
2023-05-16T19:33:58.945Z,3.93
2023-05-16T19:36:40.434Z,4.20
2023-05-16T19:39:17.184Z,5.67
2023-05-16T19:41:52.173Z,4.13
2023-05-16T19:44:36.242Z,5.20
2023-05-16T19:47:30.248Z,5.20
2023-05-16T19:50:01.182Z,3.40
2023-05-16T19:52:38.489Z,5.33
2023-05-16T19:55:23.943Z,5.40
2023-05-16T19:57:58.275Z,5.47
2023-05-16T20:00:36.330Z,5.23
2023-05-16T20:03:15.295Z,4.70
2023-05-16T20:05:49.535Z,5.53
2023-05-16T20:08:25.058Z,5.30
2023-05-16T20:10:54.525Z,3.60
2023-05-16T20:13:26.532Z,5.07
2023-05-16T20:16:00.807Z,3.43
2023-05-16T20:18:35.229Z,3.60
2023-05-16T20:21:09.576Z,6.97
2023-05-16T20:23:40.208Z,6.90
2023-05-16T20:26:16.085Z,5.10
2023-05-16T20:28:46.007Z,6.40
2023-05-16T20:31:15.761Z,5.37
2023-05-16T20:33:48.565Z,7.70
2023-05-16T20:36:20.149Z,8.23
2023-05-16T20:38:52.724Z,4.77
2023-05-16T20:41:22.419Z,4.57
2023-05-16T20:43:52.026Z,7.03
2023-05-16T20:46:24.487Z,4.33
2023-05-16T20:48:55.619Z,4.83
2023-05-16T20:51:25.595Z,3.90
2023-05-16T20:53:57.027Z,3.40
2023-05-16T20:56:26.779Z,3.97
2023-05-16T20:58:58.378Z,4.83
2023-05-16T21:01:27.474Z,6.97
2023-05-16T21:03:58.420Z,6.43
2023-05-16T21:06:27.552Z,2.50
2023-05-16T21:08:58.429Z,3.80
2023-05-16T21:11:28.015Z,5.97
2023-05-16T21:13:56.860Z,3.63
2023-05-16T21:16:25.591Z,3.47
2023-05-16T21:18:54.409Z,3.90
2023-05-16T21:21:25.572Z,3.90
2023-05-16T21:23:56.362Z,4.03
2023-05-16T21:26:27.050Z,3.90
2023-05-16T21:28:57.490Z,5.77
2023-05-16T21:31:26.509Z,4.23
2023-05-16T21:33:55.593Z,3.47
2023-05-16T21:36:26.436Z,4.40
2023-05-16T21:38:57.392Z,3.90
2023-05-16T21:41:27.024Z,4.30
2023-05-16T21:43:55.864Z,3.07
2023-05-16T21:46:25.337Z,4.47
2023-05-16T21:48:54.975Z,6.40
2023-05-16T21:51:26.351Z,3.07
2023-05-16T21:53:56.310Z,4.37
2023-05-16T21:56:26.330Z,3.97
2023-05-16T21:58:55.775Z,4.03
2023-05-16T22:01:27.017Z,4.93
2023-05-16T22:03:56.060Z,2.83
2023-05-16T22:06:28.633Z,6.10
2023-05-16T22:08:58.677Z,4.10
2023-05-16T22:11:28.276Z,4.50
2023-05-16T22:13:57.593Z,3.47
2023-05-16T22:16:26.278Z,3.67
2023-05-16T22:18:55.061Z,4.33
2023-05-16T22:21:26.530Z,5.40
2023-05-16T22:23:55.823Z,4.57
2023-05-16T22:26:26.662Z,4.03
2023-05-16T22:28:55.489Z,6.67
2023-05-16T22:31:24.150Z,4.53
2023-05-16T22:33:52.857Z,4.70
2023-05-16T22:36:21.423Z,4.50
2023-05-16T22:38:51.486Z,5.20
2023-05-16T22:41:20.628Z,3.10
2023-05-16T22:43:50.070Z,4.13
2023-05-16T22:46:18.842Z,4.33
2023-05-16T22:48:47.732Z,3.87
2023-05-16T22:51:17.187Z,7.20
2023-05-16T22:53:45.747Z,4.27
2023-05-16T22:56:16.514Z,4.43
2023-05-16T22:58:45.535Z,8.00
2023-05-16T23:01:14.845Z,5.60
2023-05-16T23:03:43.770Z,4.00
2023-05-16T23:06:12.678Z,4.23
2023-05-16T23:08:41.253Z,7.10
2023-05-16T23:11:10.269Z,4.47
2023-05-16T23:13:40.073Z,7.60
2023-05-16T23:16:08.800Z,4.07
2023-05-16T23:18:37.383Z,4.47
2023-05-16T23:21:06.078Z,5.60
2023-05-16T23:23:34.830Z,4.90
2023-05-16T23:26:03.939Z,3.47
2023-05-16T23:28:32.447Z,4.53
2023-05-16T23:31:04.587Z,7.67
2023-05-16T23:33:33.334Z,4.73
2023-05-16T23:36:04.204Z,5.23
2023-05-16T23:38:34.517Z,4.20
2023-05-16T23:41:03.052Z,7.67
2023-05-16T23:43:32.241Z,5.73
2023-05-16T23:46:11.900Z,4.03
2023-05-16T23:48:40.896Z,6.30
2023-05-16T23:51:09.749Z,6.37
2023-05-16T23:53:38.346Z,6.53
2023-05-16T23:56:07.427Z,6.20
2023-05-16T23:58:36.626Z,4.43
